Time;durP1;ratioP1;P1;durP2;ratioP2;P2;SDS_P1;SDS_P2;PMS_P1;PMS_P2;Temp;Humidity;BMP_temperature;BMP_pressure;BME280_temperature;BME280_humidity;BME280_pressure;Samples;Min_cycle;Max_cycle;Signal;HPM_P1;HPM_P2
2022/12/01 00:01:19;;;;;;;3.70;3.20;;;21.20;40.70;;;;;;5029825;28;20136;-63
2022/12/01 00:03:46;;;;;;;4.13;3.25;;;21.20;40.70;;;;;;5012314;28;20046;-63
2022/12/01 00:06:16;;;;;;;4.00;2.95;;;21.20;40.70;;;;;;5029815;28;20384;-63
2022/12/01 00:11:34;;;;;;;3.67;3.22;;;21.20;40.60;;;;;;5029261;28;20055;-63
2022/12/01 00:14:01;;;;;;;3.25;2.88;;;21.20;40.70;;;;;;5029919;28;20507;-63
2022/12/01 00:16:30;;;;;;;3.47;3.17;;;21.20;40.70;;;;;;5011648;28;20266;-63
2022/12/01 00:18:57;;;;;;;3.60;3.22;;;21.20;40.70;;;;;;5025059;28;20056;-63
2022/12/01 00:21:25;;;;;;;3.75;3.15;;;21.20;40.70;;;;;;5029011;28;20049;-63
2022/12/01 00:23:55;;;;;;;5.60;3.33;;;21.20;40.70;;;;;;5028700;28;20045;-63
2022/12/01 00:26:23;;;;;;;5.13;2.90;;;21.20;40.70;;;;;;5028449;28;20418;-63
2022/12/01 00:28:53;;;;;;;3.45;2.80;;;21.20;40.70;;;;;;5028966;28;20060;-63
2022/12/01 00:31:21;;;;;;;3.95;3.45;;;21.20;40.60;;;;;;5028150;28;20487;-63
2022/12/01 00:33:48;;;;;;;3.45;2.60;;;21.20;40.60;;;;;;5011528;28;20136;-63
2022/12/01 00:36:15;;;;;;;3.47;3.17;;;21.20;40.60;;;;;;5012127;28;20084;-63
2022/12/01 00:38:43;;;;;;;4.38;2.90;;;21.20;40.60;;;;;;5028924;28;20053;-63
2022/12/01 00:41:11;;;;;;;3.63;3.10;;;21.20;40.50;;;;;;5028852;28;20080;-63
2022/12/01 00:43:38;;;;;;;3.95;3.20;;;21.20;40.50;;;;;;5028692;28;20049;-63
2022/12/01 00:46:05;;;;;;;3.40;2.83;;;21.20;40.50;;;;;;5029089;28;20083;-63
2022/12/01 00:48:33;;;;;;;3.17;2.60;;;21.20;40.40;;;;;;5011125;28;20565;-63
2022/12/01 00:51:01;;;;;;;3.63;3.05;;;21.20;40.40;;;;;;5028375;28;20049;-63
2022/12/01 00:53:28;;;;;;;3.30;2.90;;;21.20;40.40;;;;;;5028665;28;20056;-63
2022/12/01 00:55:55;;;;;;;2.97;2.20;;;21.20;40.40;;;;;;5023921;28;20510;-63
2022/12/01 00:58:23;;;;;;;3.25;2.95;;;21.20;40.40;;;;;;5028853;28;20128;-63
2022/12/01 01:01:04;;;;;;;4.18;3.03;;;21.20;40.50;;;;;;5028466;28;20132;-63
2022/12/01 01:03:32;;;;;;;3.35;2.90;;;21.20;40.50;;;;;;5028266;28;20049;-63
2022/12/01 01:06:08;;;;;;;3.22;2.58;;;21.20;40.40;;;;;;5028819;28;20064;-63
2022/12/01 01:08:35;;;;;;;3.30;2.88;;;21.10;40.40;;;;;;5028630;28;20045;-63
2022/12/01 01:11:03;;;;;;;2.65;2.45;;;21.10;40.50;;;;;;5028051;28;20049;-63
2022/12/01 01:13:31;;;;;;;3.03;2.65;;;21.10;40.50;;;;;;5028068;28;20049;-63
2022/12/01 01:16:05;;;;;;;3.30;2.92;;;21.10;40.50;;;;;;5027858;28;20051;-63
2022/12/01 01:18:32;;;;;;;2.63;2.42;;;21.10;40.50;;;;;;5027938;28;20076;-63
2022/12/01 01:21:04;;;;;;;3.00;2.63;;;21.10;40.50;;;;;;5010855;28;20050;-63
2022/12/01 01:23:31;;;;;;;3.45;2.85;;;21.10;40.50;;;;;;5008352;28;20077;-63
2022/12/01 01:26:13;;;;;;;3.30;3.00;;;21.10;40.40;;;;;;4975043;28;20077;-63
2022/12/01 01:28:40;;;;;;;3.78;2.85;;;21.10;40.40;;;;;;5008197;28;20136;-63
2022/12/01 01:31:10;;;;;;;3.95;3.25;;;21.10;40.40;;;;;;5008949;28;20058;-63
2022/12/01 01:33:38;;;;;;;;;;;21.10;40.40;;;;;;4990984;28;20050;-63
2022/12/01 01:36:06;;;;;;;3.22;2.83;;;21.10;40.40;;;;;;5002981;28;20280;-63
2022/12/01 01:38:33;;;;;;;3.58;2.80;;;21.10;40.40;;;;;;4991266;28;20050;-63
2022/12/01 01:41:01;;;;;;;3.53;3.03;;;21.10;40.50;;;;;;5008789;28;20129;-63
2022/12/01 01:43:46;;;;;;;3.72;2.97;;;21.10;40.40;;;;;;5010237;28;20567;-63
2022/12/01 01:46:19;;;;;;;6.45;3.20;;;21.10;40.40;;;;;;5012785;28;20265;-63
2022/12/01 01:48:50;;;;;;;4.07;2.80;;;21.10;40.40;;;;;;5012460;28;20140;-63
2022/12/01 01:51:24;;;;;;;3.47;2.58;;;21.10;40.40;;;;;;5012920;28;20046;-63
2022/12/01 01:53:55;;;;;;;2.90;2.60;;;21.10;40.40;;;;;;4995514;28;20203;-63
2022/12/01 01:56:23;;;;;;;3.55;3.10;;;21.10;40.40;;;;;;5012979;28;20077;-63
2022/12/01 01:58:51;;;;;;;3.47;3.15;;;21.10;40.40;;;;;;5012082;28;20140;-62
2022/12/01 02:01:19;;;;;;;3.88;2.65;;;21.10;40.50;;;;;;5012529;28;20053;-63
2022/12/01 02:03:47;;;;;;;3.78;2.58;;;21.10;40.50;;;;;;4995154;28;20558;-63
2022/12/01 02:06:14;;;;;;;3.65;2.80;;;21.10;40.40;;;;;;5012174;28;20046;-63
2022/12/01 02:08:42;;;;;;;3.17;2.88;;;21.10;40.50;;;;;;5012635;28;20520;-63
2022/12/01 02:11:47;;;;;;;2.92;2.58;;;21.00;40.40;;;;;;5007854;28;20053;-63
2022/12/01 02:14:41;;;;;;;3.00;2.50;;;21.10;40.40;;;;;;5012853;28;20080;-63
2022/12/01 02:17:23;;;;;;;3.50;2.47;;;21.00;40.40;;;;;;4999361;28;20133;-63
2022/12/01 02:20:28;;;;;;;2.78;2.42;;;21.00;40.40;;;;;;5012776;28;20454;-63
2022/12/01 02:23:36;;;;;;;3.08;2.58;;;21.00;40.40;;;;;;5011533;28;20060;-64
2022/12/01 02:26:43;;;;;;;2.70;2.40;;;21.00;40.40;;;;;;5001088;28;20410;-63
2022/12/01 02:29:43;;;;;;;2.85;2.40;;;21.00;40.40;;;;;;4997691;28;20411;-63
2022/12/01 02:32:21;;;;;;;3.30;2.97;;;21.00;40.40;;;;;;4997895;28;20077;-63
2022/12/01 02:35:11;;;;;;;2.85;2.35;;;21.00;40.40;;;;;;5011973;28;20068;-63
2022/12/01 02:37:48;;;;;;;2.58;2.38;;;21.00;40.40;;;;;;5011955;28;20046;-63
2022/12/01 02:40:28;;;;;;;3.10;2.75;;;21.00;40.40;;;;;;5010953;28;20060;-63
2022/12/01 02:43:11;;;;;;;4.03;3.20;;;21.00;40.40;;;;;;5011418;28;20056;-63
2022/12/01 02:46:03;;;;;;;3.22;2.63;;;21.00;40.40;;;;;;5011682;28;20052;-63
2022/12/01 02:48:33;;;;;;;2.80;2.53;;;21.00;40.40;;;;;;5011649;28;20050;-63
2022/12/01 02:51:13;;;;;;;2.85;2.65;;;21.00;40.40;;;;;;5006777;28;20060;-64
2022/12/01 02:53:40;;;;;;;3.00;2.40;;;21.00;40.40;;;;;;5011608;28;20042;-63
2022/12/01 02:56:11;;;;;;;3.63;3.22;;;21.00;40.30;;;;;;5010965;28;20056;-63
2022/12/01 02:58:38;;;;;;;3.55;2.65;;;21.00;40.30;;;;;;5011873;28;20129;-62
2022/12/01 03:01:45;;;;;;;2.63;2.40;;;21.00;40.30;;;;;;5010848;28;20161;-63
2022/12/01 03:04:38;;;;;;;3.03;2.70;;;21.00;40.30;;;;;;5011278;28;20082;-63
2022/12/01 03:07:21;;;;;;;3.13;2.67;;;21.10;40.40;;;;;;5011995;28;20053;-63
2022/12/01 03:10:13;;;;;;;3.17;2.42;;;21.00;40.30;;;;;;5011040;28;20107;-63
2022/12/01 03:12:56;;;;;;;2.58;2.38;;;21.00;40.30;;;;;;4999779;28;20050;-63
2022/12/01 03:15:52;;;;;;;2.85;2.40;;;21.00;40.30;;;;;;5011166;28;20046;-63
2022/12/01 03:18:52;;;;;;;3.15;2.67;;;21.00;40.30;;;;;;4979935;28;20057;-63
2022/12/01 03:21:27;;;;;;;3.35;2.85;;;21.00;40.30;;;;;;4999111;28;20049;-63
2022/12/01 03:24:00;;;;;;;3.42;2.75;;;21.00;40.30;;;;;;4989304;28;20046;-63
2022/12/01 03:26:31;;;;;;;2.88;2.58;;;21.00;40.30;;;;;;5011350;28;20057;-63
2022/12/01 03:29:08;;;;;;;2.63;2.25;;;21.00;40.30;;;;;;5010218;28;20063;-63
2022/12/01 03:31:41;;;;;;;2.88;2.58;;;21.00;40.30;;;;;;4993810;28;20404;-63
2022/12/01 03:34:16;;;;;;;5.35;2.92;;;21.00;40.30;;;;;;5010528;28;20136;-63
2022/12/01 03:36:51;;;;;;;3.05;2.50;;;21.00;40.30;;;;;;5010644;28;20385;-63
2022/12/01 03:39:25;;;;;;;3.42;2.50;;;21.00;40.30;;;;;;5010298;28;20058;-63
2022/12/01 03:42:01;;;;;;;2.55;2.35;;;21.00;40.30;;;;;;5011276;28;20439;-63
2022/12/01 03:44:35;;;;;;;3.80;3.25;;;21.00;40.30;;;;;;4993420;28;20084;-63
2022/12/01 03:47:10;;;;;;;3.05;2.58;;;21.00;40.90;;;;;;5010349;28;20511;-63
2022/12/01 03:49:39;;;;;;;3.50;2.63;;;21.00;40.30;;;;;;5011027;28;20129;-63
2022/12/01 03:52:30;;;;;;;2.40;2.20;;;20.90;40.30;;;;;;5009910;28;20046;-63
2022/12/01 03:55:10;;;;;;;3.65;2.63;;;20.90;40.30;;;;;;5010366;28;20484;-63
2022/12/01 03:57:45;;;;;;;;;;;21.00;40.30;;;;;;5007196;28;20050;-63
2022/12/01 04:00:14;;;;;;;2.55;2.35;;;21.00;40.30;;;;;;4996301;28;20287;-62
2022/12/01 04:02:43;;;;;;;3.00;2.70;;;20.90;40.30;;;;;;4988007;28;20039;-63
2022/12/01 04:05:11;;;;;;;2.85;2.60;;;20.90;40.30;;;;;;5009658;28;20137;-63
2022/12/01 04:07:39;;;;;;;4.15;3.00;;;20.90;40.30;;;;;;4994556;28;20378;-63
2022/12/01 04:10:07;;;;;;;4.22;2.65;;;20.90;40.30;;;;;;4990423;28;20105;-63
2022/12/01 04:12:34;;;;;;;3.15;2.70;;;20.90;40.30;;;;;;4990874;28;20057;-63
2022/12/01 04:15:06;;;;;;;2.63;2.42;;;20.90;40.30;;;;;;4990297;28;20054;-63
2022/12/01 04:17:34;;;;;;;3.25;2.85;;;20.90;40.30;;;;;;4974433;28;20077;-63
2022/12/01 04:20:02;;;;;;;2.90;2.55;;;20.90;40.30;;;;;;4991335;28;20408;-63
2022/12/01 04:22:29;;;;;;;2.90;2.60;;;20.90;40.30;;;;;;5008989;28;20455;-63
2022/12/01 04:24:56;;;;;;;2.85;2.55;;;20.90;40.30;;;;;;5010174;28;20050;-63
2022/12/01 04:27:23;;;;;;;3.78;2.78;;;20.90;40.30;;;;;;4990938;28;20503;-63
2022/12/01 04:29:50;;;;;;;2.80;2.53;;;20.90;40.30;;;;;;5009820;28;20053;-63
2022/12/01 04:32:18;;;;;;;3.47;3.10;;;20.90;40.30;;;;;;5009216;28;20049;-63
2022/12/01 04:34:45;;;;;;;3.50;2.80;;;20.90;40.30;;;;;;5004700;28;20053;-63
2022/12/01 04:37:12;;;;;;;3.17;2.88;;;20.90;40.30;;;;;;5010109;28;20510;-62
2022/12/01 04:39:41;;;;;;;2.83;2.53;;;20.90;40.30;;;;;;5008568;28;20038;-63
2022/12/01 04:42:09;;;;;;;2.67;2.47;;;20.90;40.30;;;;;;4991587;28;20050;-63
2022/12/01 04:44:36;;;;;;;3.38;2.60;;;20.90;40.30;;;;;;5009325;28;20077;-63
2022/12/01 04:47:05;;;;;;;2.97;2.67;;;20.90;40.30;;;;;;5007472;28;20058;-63
2022/12/01 04:49:33;;;;;;;3.30;2.97;;;20.90;40.30;;;;;;5009879;28;20138;-62
2022/12/01 04:52:00;;;;;;;3.45;3.15;;;20.90;40.30;;;;;;5010269;28;20092;-63
2022/12/01 04:54:27;;;;;;;3.47;3.03;;;20.90;40.30;;;;;;5008421;28;20500;-63
2022/12/01 04:56:54;;;;;;;2.58;2.38;;;20.90;40.30;;;;;;5009673;28;20050;-63
2022/12/01 04:59:22;;;;;;;3.22;2.88;;;20.90;40.30;;;;;;5009799;28;20498;-63
2022/12/01 05:01:49;;;;;;;3.92;2.67;;;20.90;40.30;;;;;;4992460;28;20060;-63
2022/12/01 05:04:16;;;;;;;3.33;2.80;;;20.90;40.30;;;;;;5008819;28;20053;-63
2022/12/01 05:06:43;;;;;;;2.88;2.60;;;20.90;40.30;;;;;;5009406;28;20049;-63
2022/12/01 05:09:13;;;;;;;3.22;2.50;;;20.90;40.30;;;;;;5009575;28;20511;-63
2022/12/01 05:11:43;;;;;;;3.03;2.78;;;20.90;40.30;;;;;;4992144;28;20056;-63
2022/12/01 05:14:10;;;;;;;2.97;2.70;;;20.90;40.20;;;;;;5009027;28;20046;-62
2022/12/01 05:16:38;;;;;;;2.85;2.65;;;20.90;40.20;;;;;;5002910;28;20499;-63
2022/12/01 05:21:53;;;;;;;2.60;2.40;;;20.90;40.20;;;;;;5009213;28;20132;-63
2022/12/01 05:24:20;;;;;;;3.13;2.40;;;20.90;40.10;;;;;;5009460;28;20046;-63
2022/12/01 05:26:47;;;;;;;2.90;2.60;;;20.90;40.10;;;;;;5009379;28;20046;-63
2022/12/01 05:29:14;;;;;;;3.15;2.72;;;20.90;40.10;;;;;;5003885;28;20049;-63
2022/12/01 05:31:43;;;;;;;2.65;2.45;;;20.90;40.10;;;;;;4989675;28;20431;-63
2022/12/01 05:34:10;;;;;;;2.85;2.55;;;20.90;40.20;;;;;;4989374;28;20046;-63
2022/12/01 05:36:37;;;;;;;4.28;3.10;;;20.90;40.10;;;;;;4989393;28;20548;-63
2022/12/01 05:39:04;;;;;;;4.97;3.85;;;20.90;40.00;;;;;;4989392;28;20043;-63
2022/12/01 05:41:31;;;;;;;4.10;3.42;;;20.90;39.80;;;;;;4994413;28;20050;-63
2022/12/01 05:43:59;;;;;;;4.60;3.85;;;20.90;39.70;;;;;;5008885;28;20041;-63
2022/12/01 05:46:26;;;;;;;4.50;3.47;;;20.90;39.70;;;;;;5008507;28;20072;-63
2022/12/01 05:48:53;;;;;;;3.72;3.42;;;20.90;39.70;;;;;;4990834;28;20084;-63
2022/12/01 05:51:20;;;;;;;5.70;3.85;;;20.90;39.70;;;;;;5008933;28;20408;-63
2022/12/01 05:53:47;;;;;;;4.88;4.15;;;20.90;39.80;;;;;;5004380;28;20412;-63
2022/12/01 05:56:14;;;;;;;3.92;3.53;;;20.90;39.80;;;;;;5008722;28;20061;-63
2022/12/01 05:58:41;;;;;;;4.20;3.35;;;20.90;39.80;;;;;;5009121;28;20490;-63
2022/12/01 06:01:09;;;;;;;4.70;4.10;;;20.90;39.80;;;;;;4993979;28;20492;-63
2022/12/01 06:03:36;;;;;;;4.63;3.58;;;20.90;39.80;;;;;;4981946;28;20041;-62
2022/12/01 06:06:03;;;;;;;5.25;4.07;;;20.90;39.80;;;;;;5011556;28;20057;-63
2022/12/01 06:08:30;;;;;;;4.70;4.03;;;20.90;39.80;;;;;;4993199;28;20514;-62
2022/12/01 06:10:57;;;;;;;4.35;3.38;;;21.00;39.90;;;;;;5007397;28;20050;-61
2022/12/01 06:13:24;;;;;;;6.55;4.55;;;21.00;39.80;;;;;;5002221;28;20045;-62
2022/12/01 06:15:56;;;;;;;3.95;3.58;;;21.00;39.80;;;;;;4988953;28;20054;-61
2022/12/01 06:18:26;;;;;;;6.20;4.72;;;21.00;39.80;;;;;;5001694;28;20038;-60
2022/12/01 06:20:53;;;;;;;4.85;3.67;;;21.10;39.80;;;;;;5004525;28;20046;-60
2022/12/01 06:23:20;;;;;;;5.30;4.57;;;21.10;39.70;;;;;;4999074;28;20042;-60
2022/12/01 06:25:52;;;;;;;7.40;4.63;;;21.20;39.70;;;;;;5003639;28;20058;-60
2022/12/01 06:28:19;;;;;;;6.88;5.00;;;21.20;39.70;;;;;;4998663;28;20054;-60
2022/12/01 06:30:46;;;;;;;5.13;4.20;;;21.20;39.60;;;;;;4996775;28;20077;-62
2022/12/01 06:33:13;;;;;;;13.98;5.78;;;21.30;39.70;;;;;;4999536;28;20046;-61
2022/12/01 06:35:40;;;;;;;6.82;4.95;;;21.30;39.70;;;;;;5003377;28;20403;-65
2022/12/01 06:38:07;;;;;;;10.20;5.72;;;21.30;40.30;;;;;;5004273;28;20046;-65
2022/12/01 06:40:35;;;;;;;9.63;5.97;;;21.30;39.60;;;;;;5001925;28;20057;-62
2022/12/01 06:43:02;;;;;;;6.38;5.05;;;21.40;39.60;;;;;;5000336;28;20393;-62
2022/12/01 06:45:30;;;;;;;5.60;4.88;;;21.40;39.40;;;;;;4985648;28;20053;-62
2022/12/01 06:47:57;;;;;;;7.05;5.00;;;21.40;39.40;;;;;;4996124;28;20145;-62
2022/12/01 06:50:25;;;;;;;6.93;5.32;;;21.50;39.30;;;;;;5003133;28;20136;-62
2022/12/01 06:52:52;;;;;;;7.97;5.72;;;21.50;39.20;;;;;;5003201;28;20058;-62
2022/12/01 06:55:19;;;;;;;5.28;4.78;;;21.50;39.10;;;;;;4999364;28;20492;-62
2022/12/01 06:57:47;;;;;;;7.32;5.57;;;21.50;39.00;;;;;;4998506;28;20094;-63
2022/12/01 07:00:15;;;;;;;6.50;5.30;;;21.50;38.90;;;;;;4995909;28;20412;-64
2022/12/01 07:02:42;;;;;;;6.93;5.90;;;21.60;38.90;;;;;;4997545;28;20057;-62
2022/12/01 07:05:10;;;;;;;7.60;5.28;;;21.60;38.80;;;;;;5003401;28;20046;-63
2022/12/01 07:07:38;;;;;;;7.05;5.75;;;21.60;38.90;;;;;;4997232;28;20089;-64
2022/12/01 07:10:06;;;;;;;8.25;6.00;;;21.60;39.00;;;;;;4984217;28;20096;-63
2022/12/01 07:12:33;;;;;;;8.82;5.93;;;21.60;39.10;;;;;;4999126;28;20058;-65
2022/12/01 07:15:01;;;;;;;8.35;5.57;;;21.60;39.00;;;;;;5003375;28;20046;-63
2022/12/01 07:17:29;;;;;;;8.52;5.80;;;21.60;39.10;;;;;;5004229;28;20041;-64
2022/12/01 07:19:56;;;;;;;7.07;5.28;;;21.70;39.10;;;;;;4977288;28;20042;-65
2022/12/01 07:22:23;;;;;;;9.93;6.10;;;21.60;39.00;;;;;;4999627;28;20058;-63
2022/12/01 07:24:58;;;;;;;8.65;5.30;;;21.60;39.00;;;;;;4982451;28;20583;-63
2022/12/01 07:27:28;;;;;;;7.82;5.65;;;21.70;39.20;;;;;;5001759;28;20612;-62
2022/12/01 07:29:55;;;;;;;6.72;5.30;;;21.70;39.20;;;;;;4998878;28;20058;-63
2022/12/01 07:32:22;;;;;;;6.78;5.45;;;21.70;39.10;;;;;;5001934;28;20050;-63
2022/12/01 07:34:50;;;;;;;8.18;6.10;;;21.80;39.20;;;;;;5000454;28;20053;-64
2022/12/01 07:37:17;;;;;;;8.20;6.22;;;21.80;39.10;;;;;;4997584;28;20715;-63
2022/12/01 07:39:45;;;;;;;8.82;5.53;;;21.80;39.00;;;;;;5003675;28;20405;-64
2022/12/01 07:42:12;;;;;;;6.63;5.90;;;21.80;38.90;;;;;;4999975;28;20058;-63
2022/12/01 07:44:39;;;;;;;8.40;5.38;;;21.90;39.10;;;;;;4998626;28;20054;-61
2022/12/01 07:47:06;;;;;;;10.20;5.63;;;21.90;39.20;;;;;;4983072;28;20057;-62
2022/12/01 07:49:33;;;;;;;6.30;4.90;;;22.00;39.40;;;;;;4996164;28;20042;-64
2022/12/01 07:52:01;;;;;;;12.05;6.00;;;22.00;39.40;;;;;;4997923;28;20699;-63
2022/12/01 07:54:28;;;;;;;7.35;5.80;;;22.00;39.30;;;;;;4995173;28;20519;-63
2022/12/01 07:56:55;;;;;;;6.93;5.20;;;22.10;39.30;;;;;;5002394;28;20054;-64
2022/12/01 07:59:22;;;;;;;7.82;6.20;;;22.10;39.10;;;;;;4998128;28;20061;-64
2022/12/01 08:01:49;;;;;;;7.45;5.80;;;22.10;39.00;;;;;;4993723;28;20503;-63
2022/12/01 08:04:16;;;;;;;8.40;6.10;;;22.20;39.00;;;;;;5001234;28;20050;-63
2022/12/01 08:06:43;;;;;;;7.68;5.65;;;22.20;39.10;;;;;;5000904;28;20045;-64
2022/12/01 08:09:10;;;;;;;7.57;6.18;;;22.20;39.10;;;;;;4983263;28;20094;-62
2022/12/01 08:11:37;;;;;;;9.90;5.40;;;22.30;39.20;;;;;;5001544;28;20046;-66
2022/12/01 08:14:04;;;;;;;9.05;5.70;;;22.40;39.20;;;;;;4999904;28;20064;-62
2022/12/01 08:16:32;;;;;;;5.72;4.97;;;22.40;39.10;;;;;;5001282;28;20046;-62
2022/12/01 08:18:59;;;;;;;9.38;5.50;;;22.40;39.10;;;;;;4999005;28;20046;-63
2022/12/01 08:21:26;;;;;;;6.70;5.28;;;22.50;39.20;;;;;;4999527;28;20046;-64
2022/12/01 08:23:55;;;;;;;9.00;6.00;;;22.50;39.10;;;;;;4998820;28;20492;-61
2022/12/01 08:26:23;;;;;;;9.82;5.88;;;22.50;39.10;;;;;;4996101;28;20058;-62
2022/12/01 08:28:51;;;;;;;6.53;5.13;;;22.60;39.10;;;;;;5000044;28;20055;-63
2022/12/01 08:31:27;;;;;;;7.15;5.50;;;22.60;39.10;;;;;;4994773;28;20069;-62
2022/12/01 08:33:55;;;;;;;8.77;5.55;;;22.60;39.00;;;;;;4979492;28;20053;-61
2022/12/01 08:36:24;;;;;;;7.40;5.85;;;22.60;39.00;;;;;;4982651;28;20060;-62
2022/12/01 08:38:52;;;;;;;7.47;5.47;;;22.70;39.00;;;;;;4999456;28;20050;-61
2022/12/01 08:41:20;;;;;;;7.20;5.60;;;22.70;39.00;;;;;;4998204;28;20054;-62
2022/12/01 08:43:47;;;;;;;9.18;6.28;;;22.70;39.00;;;;;;5001826;28;20515;-65
2022/12/01 08:46:26;;;;;;;6.88;5.47;;;22.70;39.00;;;;;;4996200;28;20046;-63
2022/12/01 08:48:53;;;;;;;7.05;5.85;;;22.70;39.00;;;;;;4978821;28;20064;-65
2022/12/01 08:51:20;;;;;;;8.75;5.88;;;22.80;39.00;;;;;;4999616;28;20064;-62
2022/12/01 08:53:49;;;;;;;7.82;5.57;;;22.80;38.90;;;;;;4996345;28;20042;-64
2022/12/01 08:56:19;;;;;;;6.82;5.43;;;22.80;38.80;;;;;;4997180;28;20074;-64
2022/12/01 08:58:47;;;;;;;6.60;5.03;;;22.80;38.80;;;;;;4990359;28;20049;-63
2022/12/01 09:01:15;;;;;;;8.13;5.60;;;22.90;38.80;;;;;;4999843;28;20077;-63
2022/12/01 09:03:43;;;;;;;7.85;5.85;;;22.90;39.20;;;;;;4998568;28;20103;-65
2022/12/01 09:06:19;;;;;;;8.23;6.10;;;22.90;38.70;;;;;;4996480;28;20054;-64
2022/12/01 09:08:46;;;;;;;7.28;5.60;;;22.90;38.60;;;;;;4995783;28;20049;-65
2022/12/01 09:11:16;;;;;;;9.30;5.68;;;23.00;38.60;;;;;;4977262;28;20053;-64
2022/12/01 09:13:44;;;;;;;10.20;5.93;;;23.00;38.40;;;;;;4995122;28;20053;-63
2022/12/01 09:16:18;;;;;;;8.20;5.95;;;23.00;38.30;;;;;;4999585;28;20509;-63
2022/12/01 09:18:47;;;;;;;9.32;6.53;;;23.00;38.20;;;;;;4995856;28;20062;-66
2022/12/01 09:21:19;;;;;;;11.70;7.05;;;23.00;38.10;;;;;;4994704;28;20524;-64
2022/12/01 09:23:47;;;;;;;10.43;5.78;;;23.10;38.00;;;;;;4996262;28;20511;-64
2022/12/01 09:26:17;;;;;;;7.85;5.55;;;23.10;38.20;;;;;;4996369;28;20521;-63
2022/12/01 09:28:45;;;;;;;7.20;5.18;;;23.10;38.30;;;;;;4996935;28;20050;-66
2022/12/01 09:31:14;;;;;;;7.15;5.88;;;23.10;38.30;;;;;;4997959;28;20058;-65
2022/12/01 09:33:41;;;;;;;8.50;6.05;;;23.20;38.40;;;;;;4981511;28;20129;-66
2022/12/01 09:36:10;;;;;;;7.40;5.00;;;23.20;38.40;;;;;;4988292;28;20081;-64
2022/12/01 09:38:38;;;;;;;7.85;5.45;;;23.30;38.30;;;;;;4981013;28;20693;-63
2022/12/01 09:41:10;;;;;;;7.78;5.90;;;23.30;38.30;;;;;;4999302;28;20054;-62
2022/12/01 09:43:55;;;;;;;8.00;5.80;;;23.30;38.20;;;;;;4996181;28;20443;-62
2022/12/01 09:46:32;;;;;;;12.45;6.07;;;23.30;38.10;;;;;;4994023;28;21858;-61
2022/12/01 09:49:02;;;;;;;9.50;5.90;;;23.40;38.20;;;;;;4997477;28;20487;-60
2022/12/01 09:51:34;;;;;;;6.03;5.13;;;23.40;38.10;;;;;;4998815;28;20046;-61
2022/12/01 09:54:02;;;;;;;9.82;5.70;;;23.40;38.10;;;;;;4981837;28;20633;-62
2022/12/01 09:56:35;;;;;;;6.47;5.25;;;23.40;38.10;;;;;;4995792;28;20060;-65
2022/12/01 09:59:06;;;;;;;7.25;5.20;;;23.50;38.00;;;;;;4975354;28;20058;-63
2022/12/01 10:01:37;;;;;;;7.80;6.07;;;23.50;37.90;;;;;;4996419;28;20053;-64
2022/12/01 10:04:40;;;;;;;6.25;5.20;;;23.50;37.70;;;;;;4998442;28;20049;-63
2022/12/01 10:07:22;;;;;;;6.40;5.50;;;23.60;37.70;;;;;;4999982;28;20050;-62
2022/12/01 10:10:00;;;;;;;8.05;5.93;;;23.60;37.70;;;;;;4995760;28;20401;-61
2022/12/01 10:12:31;;;;;;;10.98;6.70;;;23.60;37.70;;;;;;4998971;28;21040;-62
2022/12/01 10:15:23;;;;;;;7.53;5.60;;;23.60;37.60;;;;;;4999913;28;20538;-63
2022/12/01 10:18:20;;;;;;;6.93;5.72;;;23.70;37.60;;;;;;4998990;28;20050;-63
2022/12/01 10:21:19;;;;;;;6.80;4.90;;;23.70;37.60;;;;;;4995782;28;20046;-63
2022/12/01 10:24:23;;;;;;;6.85;5.85;;;23.70;37.60;;;;;;5001053;28;20145;-63
2022/12/01 10:27:30;;;;;;;8.27;5.85;;;23.70;37.60;;;;;;4999342;28;20053;-69
2022/12/01 10:30:11;;;;;;;8.55;5.60;;;23.80;37.70;;;;;;4984729;28;20455;-65
2022/12/01 10:32:51;;;;;;;7.07;5.13;;;23.80;37.70;;;;;;4998240;28;20443;-63
2022/12/01 10:35:22;;;;;;;9.07;5.80;;;23.90;37.70;;;;;;4997061;28;20145;-66
2022/12/01 10:37:55;;;;;;;8.07;5.38;;;23.90;37.60;;;;;;4998990;28;20065;-62
2022/12/01 10:40:25;;;;;;;8.25;5.68;;;23.90;37.40;;;;;;4982051;28;20042;-66
2022/12/01 10:42:54;;;;;;;9.88;6.45;;;23.90;37.30;;;;;;4979213;28;20046;-63
2022/12/01 10:45:32;;;;;;;8.15;5.68;;;24.00;37.30;;;;;;4998357;28;20062;-66
2022/12/01 10:48:18;;;;;;;7.18;5.72;;;24.00;37.20;;;;;;5000131;28;20050;-64
2022/12/01 10:50:48;;;;;;;5.82;5.20;;;24.00;37.10;;;;;;4998506;28;20046;-64
2022/12/01 10:53:32;;;;;;;8.00;6.28;;;24.00;37.00;;;;;;4997824;28;20062;-62
2022/12/01 10:56:10;;;;;;;9.70;6.30;;;24.00;37.00;;;;;;4983714;28;20045;-61
2022/12/01 10:58:47;;;;;;;12.25;5.90;;;24.10;36.90;;;;;;4998816;28;20060;-63
2022/12/01 11:01:24;;;;;;;7.88;5.93;;;24.10;36.90;;;;;;4997229;28;20494;-61
2022/12/01 11:04:06;;;;;;;10.05;6.32;;;24.10;36.90;;;;;;4996774;28;20060;-60
2022/12/01 11:06:34;;;;;;;9.85;5.55;;;24.10;36.70;;;;;;5002610;28;20053;-61
2022/12/01 11:09:05;;;;;;;7.90;5.78;;;24.10;36.70;;;;;;5005185;28;20038;-60
2022/12/01 11:11:38;;;;;;;8.13;6.55;;;24.10;36.70;;;;;;5001680;28;20625;-60
2022/12/01 11:14:22;;;;;;;10.25;6.10;;;24.10;36.60;;;;;;4998131;28;20065;-62
2022/12/01 11:16:52;;;;;;;7.55;5.75;;;24.10;36.50;;;;;;4998497;28;20088;-60
2022/12/01 11:19:32;;;;;;;7.63;5.65;;;24.20;36.60;;;;;;4995294;28;20386;-60
2022/12/01 11:22:02;;;;;;;9.40;6.47;;;24.20;36.40;;;;;;4999953;28;20053;-60
2022/12/01 11:24:44;;;;;;;7.82;6.05;;;24.20;36.40;;;;;;4980912;28;20295;-60
2022/12/01 11:27:18;;;;;;;8.05;6.20;;;24.20;36.30;;;;;;5002860;28;20053;-60
2022/12/01 11:29:47;;;;;;;8.20;5.20;;;24.20;36.30;;;;;;4999229;28;20504;-61
2022/12/01 11:32:20;;;;;;;8.57;6.05;;;24.20;36.20;;;;;;4984461;28;20496;-61
2022/12/01 11:34:58;;;;;;;9.35;6.57;;;24.20;36.30;;;;;;5002418;28;20057;-61
2022/12/01 11:37:31;;;;;;;7.45;5.60;;;24.20;36.20;;;;;;5003323;28;20411;-61
2022/12/01 11:40:15;;;;;;;10.35;6.13;;;24.20;36.20;;;;;;5002480;28;20049;-61
2022/12/01 11:42:48;;;;;;;7.80;5.75;;;24.10;36.10;;;;;;4999566;28;20539;-61
2022/12/01 11:45:31;;;;;;;9.55;6.53;;;24.10;36.10;;;;;;5000136;28;20136;-63
2022/12/01 11:48:21;;;;;;;8.73;6.50;;;24.10;36.00;;;;;;4999530;28;20050;-62
2022/12/01 11:51:28;;;;;;;7.63;5.95;;;24.10;36.20;;;;;;4999898;28;20439;-63
2022/12/01 11:54:17;;;;;;;10.32;6.13;;;24.10;36.40;;;;;;4978393;28;20504;-63
2022/12/01 11:56:47;;;;;;;8.30;6.40;;;24.10;36.50;;;;;;4997408;28;20054;-63
2022/12/01 11:59:30;;;;;;;11.73;7.55;;;24.10;36.60;;;;;;4999189;28;20077;-66
2022/12/01 12:02:26;;;;;;;7.47;6.53;;;24.10;36.50;;;;;;5000757;28;20073;-64
2022/12/01 12:05:07;;;;;;;7.75;6.05;;;24.00;36.40;;;;;;4989865;28;20065;-62
2022/12/01 12:08:08;;;;;;;7.07;5.80;;;24.10;36.50;;;;;;4999171;28;20055;-61
2022/12/01 12:11:04;;;;;;;7.85;5.97;;;24.00;37.00;;;;;;4983827;28;20050;-63
2022/12/01 12:14:04;;;;;;;9.02;6.35;;;24.10;36.50;;;;;;4998635;28;20140;-68
2022/12/01 12:16:52;;;;;;;7.55;6.07;;;24.00;36.40;;;;;;4997764;28;20116;-64
2022/12/01 12:19:59;;;;;;;7.38;5.93;;;24.10;36.40;;;;;;5000503;28;20042;-63
2022/12/01 12:23:12;;;;;;;8.82;5.88;;;24.00;36.40;;;;;;4986435;28;20058;-61
2022/12/01 12:26:06;;;;;;;10.35;6.65;;;24.00;36.40;;;;;;5001298;28;20053;-61
2022/12/01 12:29:03;;;;;;;8.85;6.25;;;24.00;36.30;;;;;;4999098;28;20057;-60
2022/12/01 12:32:10;;;;;;;8.00;6.15;;;24.00;36.40;;;;;;4988600;28;20141;-65
2022/12/01 12:35:08;;;;;;;8.65;6.20;;;23.90;36.30;;;;;;4997236;28;20499;-64
2022/12/01 12:37:59;;;;;;;8.20;5.80;;;23.90;36.30;;;;;;4983878;28;20044;-64
2022/12/01 12:40:41;;;;;;;7.70;5.75;;;23.90;37.10;;;;;;4995921;28;20042;-62
2022/12/01 12:43:41;;;;;;;6.75;5.57;;;23.90;36.70;;;;;;4998336;28;20527;-62
2022/12/01 12:46:34;;;;;;;9.05;5.53;;;23.90;36.80;;;;;;4997181;28;20053;-61
2022/12/01 12:49:24;;;;;;;8.45;6.32;;;23.90;36.90;;;;;;4984465;28;20062;-61
2022/12/01 12:52:18;;;;;;;7.07;5.80;;;23.90;37.00;;;;;;4998752;28;20050;-60
2022/12/01 12:55:15;;;;;;;7.13;5.07;;;23.90;37.30;;;;;;5000382;28;20062;-64
2022/12/01 12:57:51;;;;;;;13.63;6.10;;;23.90;37.40;;;;;;4991433;28;20065;-62
2022/12/01 13:00:24;;;;;;;7.63;5.63;;;23.90;37.50;;;;;;4979184;28;20484;-63
2022/12/01 13:02:58;;;;;;;9.30;5.68;;;23.90;37.60;;;;;;5000806;28;20145;-59
2022/12/01 13:05:49;;;;;;;9.27;6.05;;;24.00;37.70;;;;;;4998597;28;20050;-59
2022/12/01 13:08:33;;;;;;;7.40;5.63;;;24.00;37.70;;;;;;4998139;28;20144;-59
2022/12/01 13:11:14;;;;;;;20.15;5.70;;;24.00;37.70;;;;;;4995864;28;20049;-59
2022/12/01 13:14:03;;;;;;;6.97;5.68;;;24.00;37.70;;;;;;4982141;28;20057;-60
2022/12/01 13:16:38;;;;;;;9.45;5.85;;;24.00;37.60;;;;;;4997208;28;20393;-60
2022/12/01 13:19:13;;;;;;;7.20;5.57;;;24.00;37.60;;;;;;4981200;28;20068;-64
2022/12/01 13:21:44;;;;;;;7.63;5.53;;;24.00;37.50;;;;;;5000297;28;20052;-61
2022/12/01 13:24:16;;;;;;;7.57;6.10;;;24.00;37.60;;;;;;5000610;28;20068;-59
2022/12/01 13:26:54;;;;;;;6.13;5.30;;;24.00;37.60;;;;;;5000837;28;20049;-60
2022/12/01 13:29:23;;;;;;;8.13;5.68;;;24.10;37.70;;;;;;4994881;28;20060;-61